sensor_id;sensor_type;location;lat;lon;timestamp;temperature;humidity
75164;HTU21D;63746;45.402;37.922;2022-09-28T00:02:19;19.39;57.55
75164;HTU21D;63746;45.402;37.922;2022-09-28T00:04:45;19.37;57.58
75164;HTU21D;63746;45.402;37.922;2022-09-28T00:07:11;19.36;57.58
75164;HTU21D;63746;45.402;37.922;2022-09-28T00:09:37;19.35;57.59
75164;HTU21D;63746;45.402;37.922;2022-09-28T00:12:03;19.32;57.59
75164;HTU21D;63746;45.402;37.922;2022-09-28T00:14:29;19.30;57.62
75164;HTU21D;63746;45.402;37.922;2022-09-28T00:16:56;19.28;57.68
75164;HTU21D;63746;45.402;37.922;2022-09-28T00:19:22;19.28;57.71
75164;HTU21D;63746;45.402;37.922;2022-09-28T00:21:48;19.27;57.73
75164;HTU21D;63746;45.402;37.922;2022-09-28T00:24:14;19.27;57.74
75164;HTU21D;63746;45.402;37.922;2022-09-28T00:31:41;19.27;57.72
75164;HTU21D;63746;45.402;37.922;2022-09-28T00:34:07;19.25;57.73
75164;HTU21D;63746;45.402;37.922;2022-09-28T00:36:33;19.22;57.74
75164;HTU21D;63746;45.402;37.922;2022-09-28T00:39:06;19.20;57.84
75164;HTU21D;63746;45.402;37.922;2022-09-28T00:41:33;19.17;57.83
75164;HTU21D;63746;45.402;37.922;2022-09-28T00:47:08;19.13;57.93
75164;HTU21D;63746;45.402;37.922;2022-09-28T00:55:02;19.10;58.01
75164;HTU21D;63746;45.402;37.922;2022-09-28T00:57:30;19.10;58.02
75164;HTU21D;63746;45.402;37.922;2022-09-28T00:59:58;19.10;58.06
75164;HTU21D;63746;45.402;37.922;2022-09-28T01:02:26;19.09;58.04
75164;HTU21D;63746;45.402;37.922;2022-09-28T01:04:52;19.10;58.06
75164;HTU21D;63746;45.402;37.922;2022-09-28T01:07:20;19.10;58.08
75164;HTU21D;63746;45.402;37.922;2022-09-28T01:09:46;19.11;58.06
75164;HTU21D;63746;45.402;37.922;2022-09-28T01:12:13;19.11;58.06
75164;HTU21D;63746;45.402;37.922;2022-09-28T01:14:39;19.12;58.09
75164;HTU21D;63746;45.402;37.922;2022-09-28T01:17:13;19.12;58.28
75164;HTU21D;63746;45.402;37.922;2022-09-28T01:25:40;19.14;58.40
75164;HTU21D;63746;45.402;37.922;2022-09-28T01:28:22;19.15;58.75
75164;HTU21D;63746;45.402;37.922;2022-09-28T01:36:08;19.21;58.35
75164;HTU21D;63746;45.402;37.922;2022-09-28T01:38:49;19.23;58.67
75164;HTU21D;63746;45.402;37.922;2022-09-28T01:41:18;19.25;58.32
75164;HTU21D;63746;45.402;37.922;2022-09-28T01:43:53;19.27;58.49
75164;HTU21D;63746;45.402;37.922;2022-09-28T01:46:29;19.30;58.54
75164;HTU21D;63746;45.402;37.922;2022-09-28T01:49:00;19.33;58.24
75164;HTU21D;63746;45.402;37.922;2022-09-28T01:51:34;19.36;58.29
75164;HTU21D;63746;45.402;37.922;2022-09-28T01:54:11;19.33;58.41
75164;HTU21D;63746;45.402;37.922;2022-09-28T01:56:44;19.36;58.23
75164;HTU21D;63746;45.402;37.922;2022-09-28T01:59:16;19.35;58.19
75164;HTU21D;63746;45.402;37.922;2022-09-28T02:01:50;19.36;58.21
75164;HTU21D;63746;45.402;37.922;2022-09-28T02:04:25;19.35;58.24
75164;HTU21D;63746;45.402;37.922;2022-09-28T02:07:05;19.32;58.44
75164;HTU21D;63746;45.402;37.922;2022-09-28T02:09:43;19.30;58.44
75164;HTU21D;63746;45.402;37.922;2022-09-28T02:12:21;19.30;58.59
75164;HTU21D;63746;45.402;37.922;2022-09-28T02:14:48;19.29;58.23
75164;HTU21D;63746;45.402;37.922;2022-09-28T02:17:19;19.28;58.22
75164;HTU21D;63746;45.402;37.922;2022-09-28T02:19:46;19.27;58.23
75164;HTU21D;63746;45.402;37.922;2022-09-28T02:24:42;19.26;58.30
75164;HTU21D;63746;45.402;37.922;2022-09-28T02:29:55;19.26;58.30
75164;HTU21D;63746;45.402;37.922;2022-09-28T02:32:21;19.24;58.32
75164;HTU21D;63746;45.402;37.922;2022-09-28T02:34:48;19.25;58.34
75164;HTU21D;63746;45.402;37.922;2022-09-28T02:37:14;19.24;58.35
75164;HTU21D;63746;45.402;37.922;2022-09-28T02:39:40;19.22;58.38
75164;HTU21D;63746;45.402;37.922;2022-09-28T02:43:07;19.23;59.19
75164;HTU21D;63746;45.402;37.922;2022-09-28T02:45:31;19.20;58.43
75164;HTU21D;63746;45.402;37.922;2022-09-28T02:48:10;19.21;58.45
75164;HTU21D;63746;45.402;37.922;2022-09-28T02:51:00;19.21;58.46
75164;HTU21D;63746;45.402;37.922;2022-09-28T02:56:51;19.18;59.14
75164;HTU21D;63746;45.402;37.922;2022-09-28T02:59:48;19.17;59.20
75164;HTU21D;63746;45.402;37.922;2022-09-28T03:10:42;19.17;58.90
75164;HTU21D;63746;45.402;37.922;2022-09-28T03:13:10;19.17;58.54
75164;HTU21D;63746;45.402;37.922;2022-09-28T03:15:37;19.16;58.48
75164;HTU21D;63746;45.402;37.922;2022-09-28T03:18:03;19.17;58.48
75164;HTU21D;63746;45.402;37.922;2022-09-28T03:20:30;19.14;58.50
75164;HTU21D;63746;45.402;37.922;2022-09-28T03:22:56;19.13;58.50
75164;HTU21D;63746;45.402;37.922;2022-09-28T03:25:23;19.12;58.50
75164;HTU21D;63746;45.402;37.922;2022-09-28T03:27:49;19.14;58.51
75164;HTU21D;63746;45.402;37.922;2022-09-28T03:30:15;19.13;58.51
75164;HTU21D;63746;45.402;37.922;2022-09-28T03:32:44;19.14;58.51
75164;HTU21D;63746;45.402;37.922;2022-09-28T03:35:10;19.12;58.50
75164;HTU21D;63746;45.402;37.922;2022-09-28T03:37:36;19.11;58.52
75164;HTU21D;63746;45.402;37.922;2022-09-28T03:40:04;19.11;58.54
75164;HTU21D;63746;45.402;37.922;2022-09-28T03:42:34;19.08;60.02
75164;HTU21D;63746;45.402;37.922;2022-09-28T03:45:00;19.06;60.47
75164;HTU21D;63746;45.402;37.922;2022-09-28T03:47:26;19.00;58.69
75164;HTU21D;63746;45.402;37.922;2022-09-28T03:49:51;18.97;58.70
75164;HTU21D;63746;45.402;37.922;2022-09-28T03:52:17;18.96;58.74
75164;HTU21D;63746;45.402;37.922;2022-09-28T03:54:43;18.95;58.73
75164;HTU21D;63746;45.402;37.922;2022-09-28T03:57:10;18.95;58.72
75164;HTU21D;63746;45.402;37.922;2022-09-28T03:59:36;18.97;58.71
75164;HTU21D;63746;45.402;37.922;2022-09-28T04:02:04;18.95;58.71
75164;HTU21D;63746;45.402;37.922;2022-09-28T04:04:31;18.95;58.72
75164;HTU21D;63746;45.402;37.922;2022-09-28T04:06:57;18.95;58.71
75164;HTU21D;63746;45.402;37.922;2022-09-28T04:09:24;18.94;58.73
75164;HTU21D;63746;45.402;37.922;2022-09-28T04:11:50;18.94;58.72
75164;HTU21D;63746;45.402;37.922;2022-09-28T04:14:17;18.95;58.74
75164;HTU21D;63746;45.402;37.922;2022-09-28T04:16:43;18.95;58.76
75164;HTU21D;63746;45.402;37.922;2022-09-28T04:19:13;18.96;58.75
75164;HTU21D;63746;45.402;37.922;2022-09-28T04:21:57;18.97;58.75
75164;HTU21D;63746;45.402;37.922;2022-09-28T04:24:23;18.98;58.75
75164;HTU21D;63746;45.402;37.922;2022-09-28T04:26:50;18.99;58.74
75164;HTU21D;63746;45.402;37.922;2022-09-28T04:29:17;19.01;58.74
75164;HTU21D;63746;45.402;37.922;2022-09-28T04:31:48;19.03;58.75
75164;HTU21D;63746;45.402;37.922;2022-09-28T04:34:21;19.03;58.89
75164;HTU21D;63746;45.402;37.922;2022-09-28T04:36:48;19.06;58.72
75164;HTU21D;63746;45.402;37.922;2022-09-28T04:39:15;19.07;58.75
75164;HTU21D;63746;45.402;37.922;2022-09-28T04:41:47;19.08;58.77
75164;HTU21D;63746;45.402;37.922;2022-09-28T04:44:14;19.09;58.73
75164;HTU21D;63746;45.402;37.922;2022-09-28T04:46:40;19.09;58.74
75164;HTU21D;63746;45.402;37.922;2022-09-28T04:49:24;19.11;58.75
75164;HTU21D;63746;45.402;37.922;2022-09-28T04:52:08;19.12;58.75
75164;HTU21D;63746;45.402;37.922;2022-09-28T04:54:34;19.11;58.76
75164;HTU21D;63746;45.402;37.922;2022-09-28T04:57:00;19.13;58.78
75164;HTU21D;63746;45.402;37.922;2022-09-28T04:59:28;19.13;58.78
75164;HTU21D;63746;45.402;37.922;2022-09-28T05:01:54;19.14;58.79
75164;HTU21D;63746;45.402;37.922;2022-09-28T05:04:38;19.14;58.79
75164;HTU21D;63746;45.402;37.922;2022-09-28T05:07:13;19.14;58.79
75164;HTU21D;63746;45.402;37.922;2022-09-28T05:09:39;19.14;58.81
75164;HTU21D;63746;45.402;37.922;2022-09-28T05:12:05;19.15;58.85
75164;HTU21D;63746;45.402;37.922;2022-09-28T05:14:31;19.16;58.90
75164;HTU21D;63746;45.402;37.922;2022-09-28T05:16:57;19.17;58.90
75164;HTU21D;63746;45.402;37.922;2022-09-28T05:19:26;19.17;58.93
75164;HTU21D;63746;45.402;37.922;2022-09-28T05:21:57;19.23;59.16
75164;HTU21D;63746;45.402;37.922;2022-09-28T05:24:25;19.32;59.32
75164;HTU21D;63746;45.402;37.922;2022-09-28T05:26:53;19.45;59.38
75164;HTU21D;63746;45.402;37.922;2022-09-28T05:29:19;19.58;59.33
75164;HTU21D;63746;45.402;37.922;2022-09-28T05:32:03;19.71;59.32
75164;HTU21D;63746;45.402;37.922;2022-09-28T05:34:47;19.83;59.13
75164;HTU21D;63746;45.402;37.922;2022-09-28T05:37:20;19.92;59.04
75164;HTU21D;63746;45.402;37.922;2022-09-28T05:39:46;19.99;58.97
75164;HTU21D;63746;45.402;37.922;2022-09-28T05:42:12;20.07;58.91
75164;HTU21D;63746;45.402;37.922;2022-09-28T05:44:38;20.14;58.86
75164;HTU21D;63746;45.402;37.922;2022-09-28T05:47:04;20.20;58.67
75164;HTU21D;63746;45.402;37.922;2022-09-28T05:49:30;20.20;58.49
75164;HTU21D;63746;45.402;37.922;2022-09-28T05:51:58;20.18;58.41
75164;HTU21D;63746;45.402;37.922;2022-09-28T05:54:23;20.14;58.35
75164;HTU21D;63746;45.402;37.922;2022-09-28T05:56:50;20.10;58.37
75164;HTU21D;63746;45.402;37.922;2022-09-28T05:59:15;20.05;58.41
75164;HTU21D;63746;45.402;37.922;2022-09-28T06:01:42;20.01;58.44
75164;HTU21D;63746;45.402;37.922;2022-09-28T06:04:10;19.95;58.50
75164;HTU21D;63746;45.402;37.922;2022-09-28T06:06:36;19.90;58.52
75164;HTU21D;63746;45.402;37.922;2022-09-28T06:09:03;19.87;58.61
75164;HTU21D;63746;45.402;37.922;2022-09-28T06:11:30;19.84;58.70
75164;HTU21D;63746;45.402;37.922;2022-09-28T06:13:58;19.83;58.74
75164;HTU21D;63746;45.402;37.922;2022-09-28T06:16:27;19.81;58.80
75164;HTU21D;63746;45.402;37.922;2022-09-28T06:18:53;19.81;58.84
75164;HTU21D;63746;45.402;37.922;2022-09-28T06:21:39;19.80;58.87
75164;HTU21D;63746;45.402;37.922;2022-09-28T06:24:06;19.80;58.90
75164;HTU21D;63746;45.402;37.922;2022-09-28T06:26:32;19.79;58.91
75164;HTU21D;63746;45.402;37.922;2022-09-28T06:28:58;19.77;58.95
75164;HTU21D;63746;45.402;37.922;2022-09-28T06:31:25;19.76;58.99
75164;HTU21D;63746;45.402;37.922;2022-09-28T06:33:56;19.76;59.02
75164;HTU21D;63746;45.402;37.922;2022-09-28T06:36:22;19.74;59.04
75164;HTU21D;63746;45.402;37.922;2022-09-28T06:38:48;19.75;59.05
75164;HTU21D;63746;45.402;37.922;2022-09-28T06:41:15;19.72;59.06
75164;HTU21D;63746;45.402;37.922;2022-09-28T06:43:42;19.71;59.13
75164;HTU21D;63746;45.402;37.922;2022-09-28T06:46:11;19.70;59.14
75164;HTU21D;63746;45.402;37.922;2022-09-28T06:48:40;19.69;59.18
75164;HTU21D;63746;45.402;37.922;2022-09-28T06:51:10;19.70;59.25
75164;HTU21D;63746;45.402;37.922;2022-09-28T06:53:59;19.71;59.28
75164;HTU21D;63746;45.402;37.922;2022-09-28T06:56:43;19.71;59.32
75164;HTU21D;63746;45.402;37.922;2022-09-28T06:59:09;19.73;59.34
75164;HTU21D;63746;45.402;37.922;2022-09-28T07:01:37;19.74;59.32
75164;HTU21D;63746;45.402;37.922;2022-09-28T07:04:26;19.73;59.33
75164;HTU21D;63746;45.402;37.922;2022-09-28T07:07:12;19.73;59.40
75164;HTU21D;63746;45.402;37.922;2022-09-28T07:09:44;19.74;59.41
75164;HTU21D;63746;45.402;37.922;2022-09-28T07:12:10;19.77;59.45
75164;HTU21D;63746;45.402;37.922;2022-09-28T07:14:52;19.82;59.44
75164;HTU21D;63746;45.402;37.922;2022-09-28T07:17:23;19.84;59.46
75164;HTU21D;63746;45.402;37.922;2022-09-28T07:19:49;19.86;59.47
75164;HTU21D;63746;45.402;37.922;2022-09-28T07:22:23;19.92;59.50
75164;HTU21D;63746;45.402;37.922;2022-09-28T07:24:51;19.95;59.48
75164;HTU21D;63746;45.402;37.922;2022-09-28T07:27:37;19.99;59.48
75164;HTU21D;63746;45.402;37.922;2022-09-28T07:30:23;20.02;59.48
75164;HTU21D;63746;45.402;37.922;2022-09-28T07:33:05;20.06;59.50
75164;HTU21D;63746;45.402;37.922;2022-09-28T07:35:57;20.09;59.47
75164;HTU21D;63746;45.402;37.922;2022-09-28T07:38:27;20.12;59.45
75164;HTU21D;63746;45.402;37.922;2022-09-28T07:40:55;20.14;59.44
75164;HTU21D;63746;45.402;37.922;2022-09-28T07:43:41;20.17;59.42
75164;HTU21D;63746;45.402;37.922;2022-09-28T07:46:08;20.18;59.41
75164;HTU21D;63746;45.402;37.922;2022-09-28T07:48:41;20.20;59.45
75164;HTU21D;63746;45.402;37.922;2022-09-28T07:51:08;20.25;59.57
75164;HTU21D;63746;45.402;37.922;2022-09-28T07:53:40;20.32;59.53
75164;HTU21D;63746;45.402;37.922;2022-09-28T07:56:24;20.39;59.45
75164;HTU21D;63746;45.402;37.922;2022-09-28T07:59:00;20.41;59.38
75164;HTU21D;63746;45.402;37.922;2022-09-28T08:01:38;20.43;59.36
75164;HTU21D;63746;45.402;37.922;2022-09-28T08:04:05;20.46;59.35
75164;HTU21D;63746;45.402;37.922;2022-09-28T08:06:33;20.46;59.33
75164;HTU21D;63746;45.402;37.922;2022-09-28T08:09:00;20.46;59.31
75164;HTU21D;63746;45.402;37.922;2022-09-28T08:11:49;20.47;59.30
75164;HTU21D;63746;45.402;37.922;2022-09-28T08:14:33;20.47;59.28
75164;HTU21D;63746;45.402;37.922;2022-09-28T08:17:17;20.46;59.28
75164;HTU21D;63746;45.402;37.922;2022-09-28T08:19:46;20.44;59.32
75164;HTU21D;63746;45.402;37.922;2022-09-28T08:22:30;20.44;59.39
75164;HTU21D;63746;45.402;37.922;2022-09-28T08:24:58;20.49;59.45
75164;HTU21D;63746;45.402;37.922;2022-09-28T08:27:24;20.50;59.46
75164;HTU21D;63746;45.402;37.922;2022-09-28T08:29:50;20.54;59.45
75164;HTU21D;63746;45.402;37.922;2022-09-28T08:32:54;20.58;59.48
75164;HTU21D;63746;45.402;37.922;2022-09-28T08:35:40;20.60;59.47
75164;HTU21D;63746;45.402;37.922;2022-09-28T08:38:13;20.63;59.47
75164;HTU21D;63746;45.402;37.922;2022-09-28T08:47:19;20.71;60.09
75164;HTU21D;63746;45.402;37.922;2022-09-28T08:50:29;20.76;59.82
75164;HTU21D;63746;45.402;37.922;2022-09-28T08:54:11;20.80;60.08
75164;HTU21D;63746;45.402;37.922;2022-09-28T08:56:20;20.88;59.98
75164;HTU21D;63746;45.402;37.922;2022-09-28T08:58:55;20.95;59.87
75164;HTU21D;63746;45.402;37.922;2022-09-28T09:01:24;21.02;59.80
75164;HTU21D;63746;45.402;37.922;2022-09-28T09:03:51;21.13;59.76
75164;HTU21D;63746;45.402;37.922;2022-09-28T09:12:20;21.49;60.18
75164;HTU21D;63746;45.402;37.922;2022-09-28T09:20:55;21.75;59.60
75164;HTU21D;63746;45.402;37.922;2022-09-28T09:23:56;21.84;60.18
75164;HTU21D;63746;45.402;37.922;2022-09-28T09:26:36;21.94;59.86
75164;HTU21D;63746;45.402;37.922;2022-09-28T09:29:30;22.11;60.33
75164;HTU21D;63746;45.402;37.922;2022-09-28T09:32:22;22.27;60.16
75164;HTU21D;63746;45.402;37.922;2022-09-28T09:45:16;22.71;59.57
75164;HTU21D;63746;45.402;37.922;2022-09-28T09:48:22;22.78;59.23
75164;HTU21D;63746;45.402;37.922;2022-09-28T09:50:56;22.82;59.06
75164;HTU21D;63746;45.402;37.922;2022-09-28T09:53:47;22.91;59.54
75164;HTU21D;63746;45.402;37.922;2022-09-28T09:56:20;23.00;59.03
75164;HTU21D;63746;45.402;37.922;2022-09-28T09:59:25;23.13;59.17
75164;HTU21D;63746;45.402;37.922;2022-09-28T10:02:24;23.25;59.04
75164;HTU21D;63746;45.402;37.922;2022-09-28T10:05:06;23.38;58.90
75164;HTU21D;63746;45.402;37.922;2022-09-28T10:07:59;23.52;59.08
75164;HTU21D;63746;45.402;37.922;2022-09-28T10:10:32;23.64;58.64
75164;HTU21D;63746;45.402;37.922;2022-09-28T10:13:12;23.74;58.61
75164;HTU21D;63746;45.402;37.922;2022-09-28T11:29:01;24.12;57.40
75164;HTU21D;63746;45.402;37.922;2022-09-28T11:32:08;24.08;57.46
75164;HTU21D;63746;45.402;37.922;2022-09-28T11:38:37;24.00;57.42
75164;HTU21D;63746;45.402;37.922;2022-09-28T11:42:41;23.98;57.39
75164;HTU21D;63746;45.402;37.922;2022-09-28T11:48:35;23.97;57.55
75164;HTU21D;63746;45.402;37.922;2022-09-28T11:51:22;23.98;57.49
75164;HTU21D;63746;45.402;37.922;2022-09-28T11:57:28;23.97;57.37
75164;HTU21D;63746;45.402;37.922;2022-09-28T12:00:05;23.95;57.45
75164;HTU21D;63746;45.402;37.922;2022-09-28T12:02:49;23.94;57.44
75164;HTU21D;63746;45.402;37.922;2022-09-28T12:06:08;23.91;57.27
75164;HTU21D;63746;45.402;37.922;2022-09-28T12:08:52;23.87;57.42
75164;HTU21D;63746;45.402;37.922;2022-09-28T12:11:55;23.85;57.43
75164;HTU21D;63746;45.402;37.922;2022-09-28T12:14:46;23.83;57.47
75164;HTU21D;63746;45.402;37.922;2022-09-28T12:17:35;23.84;57.46
75164;HTU21D;63746;45.402;37.922;2022-09-28T12:20:17;23.83;57.49
75164;HTU21D;63746;45.402;37.922;2022-09-28T12:26:02;23.86;57.49
75164;HTU21D;63746;45.402;37.922;2022-09-28T12:28:35;23.88;57.50
75164;HTU21D;63746;45.402;37.922;2022-09-28T12:31:23;23.91;57.47
75164;HTU21D;63746;45.402;37.922;2022-09-28T12:33:53;23.91;57.43
75164;HTU21D;63746;45.402;37.922;2022-09-28T12:36:31;23.92;57.39
75164;HTU21D;63746;45.402;37.922;2022-09-28T12:39:11;23.94;57.34
75164;HTU21D;63746;45.402;37.922;2022-09-28T12:45:10;23.92;57.34
75164;HTU21D;63746;45.402;37.922;2022-09-28T12:48:29;23.89;57.33
75164;HTU21D;63746;45.402;37.922;2022-09-28T12:57:27;23.86;57.42
75164;HTU21D;63746;45.402;37.922;2022-09-28T13:02:38;23.91;57.45
75164;HTU21D;63746;45.402;37.922;2022-09-28T13:08:24;24.00;57.38
75164;HTU21D;63746;45.402;37.922;2022-09-28T13:14:40;24.04;57.22
75164;HTU21D;63746;45.402;37.922;2022-09-28T13:23:47;23.97;57.17
75164;HTU21D;63746;45.402;37.922;2022-09-28T13:26:27;23.91;57.20
75164;HTU21D;63746;45.402;37.922;2022-09-28T13:29:11;23.87;57.24
75164;HTU21D;63746;45.402;37.922;2022-09-28T13:31:51;23.85;57.27
75164;HTU21D;63746;45.402;37.922;2022-09-28T13:34:27;23.83;57.29
75164;HTU21D;63746;45.402;37.922;2022-09-28T13:39:59;23.79;57.29
75164;HTU21D;63746;45.402;37.922;2022-09-28T13:42:58;23.77;57.32
75164;HTU21D;63746;45.402;37.922;2022-09-28T13:45:50;23.75;57.35
75164;HTU21D;63746;45.402;37.922;2022-09-28T13:48:27;23.73;57.33
75164;HTU21D;63746;45.402;37.922;2022-09-28T13:54:21;23.72;57.29
75164;HTU21D;63746;45.402;37.922;2022-09-28T13:59:23;23.66;57.28
75164;HTU21D;63746;45.402;37.922;2022-09-28T14:10:19;23.50;57.35
75164;HTU21D;63746;45.402;37.922;2022-09-28T14:12:48;23.47;57.35
75164;HTU21D;63746;45.402;37.922;2022-09-28T14:18:31;23.46;57.55
75164;HTU21D;63746;45.402;37.922;2022-09-28T14:24:02;23.45;57.44
75164;HTU21D;63746;45.402;37.922;2022-09-28T14:29:25;23.44;57.48
75164;HTU21D;63746;45.402;37.922;2022-09-28T14:34:57;23.42;57.42
75164;HTU21D;63746;45.402;37.922;2022-09-28T14:37:27;23.39;57.42
75164;HTU21D;63746;45.402;37.922;2022-09-28T14:40:21;23.38;57.45
75164;HTU21D;63746;45.402;37.922;2022-09-28T14:48:58;23.29;57.45
75164;HTU21D;63746;45.402;37.922;2022-09-28T14:56:50;23.20;57.48
75164;HTU21D;63746;45.402;37.922;2022-09-28T14:59:42;23.15;57.48
75164;HTU21D;63746;45.402;37.922;2022-09-28T15:02:39;23.12;57.55
75164;HTU21D;63746;45.402;37.922;2022-09-28T15:05:13;23.06;57.52
75164;HTU21D;63746;45.402;37.922;2022-09-28T15:07:48;23.00;57.61
75164;HTU21D;63746;45.402;37.922;2022-09-28T15:12:53;22.91;57.63
75164;HTU21D;63746;45.402;37.922;2022-09-28T15:15:37;22.88;57.82
75164;HTU21D;63746;45.402;37.922;2022-09-28T15:20:38;22.81;57.77
75164;HTU21D;63746;45.402;37.922;2022-09-28T15:23:24;22.79;57.86
75164;HTU21D;63746;45.402;37.922;2022-09-28T15:25:52;22.75;57.72
75164;HTU21D;63746;45.402;37.922;2022-09-28T15:28:20;22.71;57.74
75164;HTU21D;63746;45.402;37.922;2022-09-28T15:30:50;22.68;57.76
75164;HTU21D;63746;45.402;37.922;2022-09-28T15:33:27;22.66;57.88
75164;HTU21D;63746;45.402;37.922;2022-09-28T15:36:24;22.60;57.83
75164;HTU21D;63746;45.402;37.922;2022-09-28T15:38:58;22.57;57.89
75164;HTU21D;63746;45.402;37.922;2022-09-28T15:41:25;22.55;57.84
75164;HTU21D;63746;45.402;37.922;2022-09-28T15:46:38;22.49;57.90
75164;HTU21D;63746;45.402;37.922;2022-09-28T15:49:18;22.44;57.90
75164;HTU21D;63746;45.402;37.922;2022-09-28T15:51:51;22.40;57.96
75164;HTU21D;63746;45.402;37.922;2022-09-28T15:54:26;22.37;58.08
75164;HTU21D;63746;45.402;37.922;2022-09-28T15:56:58;22.34;57.98
75164;HTU21D;63746;45.402;37.922;2022-09-28T15:59:32;22.28;58.01
75164;HTU21D;63746;45.402;37.922;2022-09-28T16:12:41;22.11;58.09
75164;HTU21D;63746;45.402;37.922;2022-09-28T16:15:30;22.08;58.38
75164;HTU21D;63746;45.402;37.922;2022-09-28T16:20:33;22.03;58.17
75164;HTU21D;63746;45.402;37.922;2022-09-28T16:31:10;21.99;58.27
75164;HTU21D;63746;45.402;37.922;2022-09-28T16:36:26;21.92;58.16
75164;HTU21D;63746;45.402;37.922;2022-09-28T16:38:54;21.88;58.14
75164;HTU21D;63746;45.402;37.922;2022-09-28T16:41:24;21.83;58.23
75164;HTU21D;63746;45.402;37.922;2022-09-28T16:43:57;21.79;58.32
75164;HTU21D;63746;45.402;37.922;2022-09-28T16:46:33;21.76;58.42
75164;HTU21D;63746;45.402;37.922;2022-09-28T16:49:05;21.74;58.34
75164;HTU21D;63746;45.402;37.922;2022-09-28T16:51:31;21.72;58.36
75164;HTU21D;63746;45.402;37.922;2022-09-28T16:54:22;21.70;58.73
75164;HTU21D;63746;45.402;37.922;2022-09-28T16:57:10;21.69;58.45
75164;HTU21D;63746;45.402;37.922;2022-09-28T16:59:36;21.66;58.43
75164;HTU21D;63746;45.402;37.922;2022-09-28T17:02:17;21.65;58.74
75164;HTU21D;63746;45.402;37.922;2022-09-28T17:04:44;21.64;58.48
75164;HTU21D;63746;45.402;37.922;2022-09-28T17:07:12;21.62;58.54
75164;HTU21D;63746;45.402;37.922;2022-09-28T17:09:41;21.61;58.53
75164;HTU21D;63746;45.402;37.922;2022-09-28T17:12:18;21.61;58.74
75164;HTU21D;63746;45.402;37.922;2022-09-28T17:14:45;21.59;58.55
75164;HTU21D;63746;45.402;37.922;2022-09-28T17:17:12;21.59;58.58
75164;HTU21D;63746;45.402;37.922;2022-09-28T17:19:37;21.58;58.60
75164;HTU21D;63746;45.402;37.922;2022-09-28T17:22:03;21.58;58.64
75164;HTU21D;63746;45.402;37.922;2022-09-28T17:24:29;21.57;58.62
75164;HTU21D;63746;45.402;37.922;2022-09-28T17:26:55;21.55;58.62
75164;HTU21D;63746;45.402;37.922;2022-09-28T17:29:22;21.54;58.62
75164;HTU21D;63746;45.402;37.922;2022-09-28T17:31:48;21.52;58.64
75164;HTU21D;63746;45.402;37.922;2022-09-28T17:34:15;21.51;58.67
75164;HTU21D;63746;45.402;37.922;2022-09-28T17:36:45;21.48;58.74
75164;HTU21D;63746;45.402;37.922;2022-09-28T17:39:13;21.46;58.72
75164;HTU21D;63746;45.402;37.922;2022-09-28T17:41:39;21.45;58.73
75164;HTU21D;63746;45.402;37.922;2022-09-28T17:44:06;21.43;58.77
75164;HTU21D;63746;45.402;37.922;2022-09-28T17:46:36;21.39;58.87
75164;HTU21D;63746;45.402;37.922;2022-09-28T17:49:04;21.37;58.86
75164;HTU21D;63746;45.402;37.922;2022-09-28T17:51:33;21.32;58.90
75164;HTU21D;63746;45.402;37.922;2022-09-28T17:54:00;21.31;58.99
75164;HTU21D;63746;45.402;37.922;2022-09-28T17:56:29;21.28;59.10
75164;HTU21D;63746;45.402;37.922;2022-09-28T17:58:59;21.28;59.10
75164;HTU21D;63746;45.402;37.922;2022-09-28T18:01:25;21.27;59.13
75164;HTU21D;63746;45.402;37.922;2022-09-28T18:04:02;21.25;59.23
75164;HTU21D;63746;45.402;37.922;2022-09-28T18:06:29;21.25;59.15
75164;HTU21D;63746;45.402;37.922;2022-09-28T18:08:58;21.24;59.16
75164;HTU21D;63746;45.402;37.922;2022-09-28T18:11:24;21.23;59.15
75164;HTU21D;63746;45.402;37.922;2022-09-28T18:13:50;21.22;59.17
75164;HTU21D;63746;45.402;37.922;2022-09-28T18:16:16;21.20;59.20
75164;HTU21D;63746;45.402;37.922;2022-09-28T18:18:44;21.18;59.22
75164;HTU21D;63746;45.402;37.922;2022-09-28T18:21:10;21.16;59.24
75164;HTU21D;63746;45.402;37.922;2022-09-28T18:23:37;21.15;59.29
75164;HTU21D;63746;45.402;37.922;2022-09-28T18:26:09;21.11;59.32
75164;HTU21D;63746;45.402;37.922;2022-09-28T18:28:35;21.10;59.34
75164;HTU21D;63746;45.402;37.922;2022-09-28T18:31:09;21.09;59.47
75164;HTU21D;63746;45.402;37.922;2022-09-28T18:33:37;21.06;59.37
75164;HTU21D;63746;45.402;37.922;2022-09-28T18:36:04;21.04;59.40
75164;HTU21D;63746;45.402;37.922;2022-09-28T18:38:31;21.02;59.43
75164;HTU21D;63746;45.402;37.922;2022-09-28T18:41:08;21.01;59.64
75164;HTU21D;63746;45.402;37.922;2022-09-28T18:43:35;20.99;59.50
75164;HTU21D;63746;45.402;37.922;2022-09-28T18:46:06;20.99;59.60
75164;HTU21D;63746;45.402;37.922;2022-09-28T18:48:32;20.96;59.54
75164;HTU21D;63746;45.402;37.922;2022-09-28T18:50:58;20.98;59.55
75164;HTU21D;63746;45.402;37.922;2022-09-28T18:53:24;20.96;59.57
75164;HTU21D;63746;45.402;37.922;2022-09-28T18:55:50;20.96;59.56
75164;HTU21D;63746;45.402;37.922;2022-09-28T18:58:16;20.95;59.57
75164;HTU21D;63746;45.402;37.922;2022-09-28T19:00:42;20.94;59.56
75164;HTU21D;63746;45.402;37.922;2022-09-28T19:03:10;20.92;59.61
75164;HTU21D;63746;45.402;37.922;2022-09-28T19:05:43;20.90;59.79
75164;HTU21D;63746;45.402;37.922;2022-09-28T19:08:09;20.90;59.61
75164;HTU21D;63746;45.402;37.922;2022-09-28T19:10:35;20.89;59.64
75164;HTU21D;63746;45.402;37.922;2022-09-28T19:13:01;20.87;59.65
75164;HTU21D;63746;45.402;37.922;2022-09-28T19:15:27;20.84;59.64
75164;HTU21D;63746;45.402;37.922;2022-09-28T19:17:53;20.80;59.64
75164;HTU21D;63746;45.402;37.922;2022-09-28T19:20:18;20.77;59.68
75164;HTU21D;63746;45.402;37.922;2022-09-28T19:22:48;20.75;59.79
75164;HTU21D;63746;45.402;37.922;2022-09-28T19:25:14;20.72;59.73
75164;HTU21D;63746;45.402;37.922;2022-09-28T19:27:40;20.69;59.76
75164;HTU21D;63746;45.402;37.922;2022-09-28T19:30:06;20.66;59.79
75164;HTU21D;63746;45.402;37.922;2022-09-28T19:32:32;20.64;59.83
75164;HTU21D;63746;45.402;37.922;2022-09-28T19:34:58;20.62;59.82
75164;HTU21D;63746;45.402;37.922;2022-09-28T19:37:24;20.60;59.82
75164;HTU21D;63746;45.402;37.922;2022-09-28T19:39:50;20.57;59.86
75164;HTU21D;63746;45.402;37.922;2022-09-28T19:42:16;20.56;59.86
75164;HTU21D;63746;45.402;37.922;2022-09-28T19:44:42;20.53;59.86
75164;HTU21D;63746;45.402;37.922;2022-09-28T19:47:08;20.49;59.85
75164;HTU21D;63746;45.402;37.922;2022-09-28T19:49:38;20.45;59.89
75164;HTU21D;63746;45.402;37.922;2022-09-28T19:52:08;20.42;59.90
75164;HTU21D;63746;45.402;37.922;2022-09-28T19:54:41;20.39;59.93
75164;HTU21D;63746;45.402;37.922;2022-09-28T19:57:08;20.35;59.95